Time;durP1;ratioP1;P1;durP2;ratioP2;P2;SDS_P1;SDS_P2;PMS_P1;PMS_P2;Temp;Humidity;BMP_temperature;BMP_pressure;BME280_temperature;BME280_humidity;BME280_pressure;Samples;Min_cycle;Max_cycle;Signal;HPM_P1;HPM_P2
2021/05/09 00:01:24;;;;;;;5.03;1.98;;;;;;;;;;5053502;28;20043;-70
2021/05/09 00:03:52;;;;;;;4.22;1.40;;;;;;;;;;5048828;28;20017;-69
2021/05/09 00:06:19;;;;;;;10.85;2.25;;;;;;;;;;5053278;28;20024;-69
2021/05/09 00:08:46;;;;;;;6.22;1.70;;;;;;;;;;5050031;28;20227;-70
2021/05/09 00:11:14;;;;;;;4.90;1.45;;;;;;;;;;5052786;28;20139;-70
2021/05/09 00:13:41;;;;;;;2.75;1.52;;;;;;;;;;5052688;28;20025;-70
2021/05/09 00:16:09;;;;;;;2.88;1.35;;;;;;;;;;5052734;28;20063;-70
2021/05/09 00:18:36;;;;;;;6.25;2.30;;;;;;;;;;5044979;28;20502;-70
2021/05/09 00:21:03;;;;;;;5.57;1.60;;;;;;;;;;5048797;28;20438;-70
2021/05/09 00:23:30;;;;;;;6.90;1.73;;;;;;;;;;5048640;28;20378;-69
2021/05/09 00:25:58;;;;;;;4.22;1.50;;;;;;;;;;5032879;28;20028;-70
2021/05/09 00:28:25;;;;;;;5.85;1.73;;;;;;;;;;5043421;28;20043;-70
2021/05/09 00:30:52;;;;;;;3.50;1.75;;;;;;;;;;5052365;28;20017;-70
2021/05/09 00:33:19;;;;;;;2.90;1.65;;;;;;;;;;5041115;28;20045;-70
2021/05/09 00:35:47;;;;;;;4.68;1.80;;;;;;;;;;5051403;28;20025;-70
2021/05/09 00:38:14;;;;;;;6.05;1.67;;;;;;;;;;5052592;28;20025;-70
2021/05/09 00:40:41;;;;;;;4.15;1.48;;;;;;;;;;5052466;28;20040;-70
2021/05/09 00:43:08;;;;;;;7.65;1.98;;;;;;;;;;5051497;28;20031;-70
2021/05/09 00:45:35;;;;;;;4.40;1.52;;;;;;;;;;5052664;28;20035;-70
2021/05/09 00:48:03;;;;;;;5.82;1.77;;;;;;;;;;5051699;28;20024;-70
2021/05/09 00:50:30;;;;;;;3.60;2.10;;;;;;;;;;5052687;28;20108;-70
2021/05/09 00:52:58;;;;;;;4.32;1.42;;;;;;;;;;5050426;28;20480;-70
2021/05/09 00:55:25;;;;;;;6.05;1.40;;;;;;;;;;5052441;28;20481;-70
2021/05/09 00:57:54;;;;;;;6.47;1.33;;;;;;;;;;5051192;28;20043;-70
2021/05/09 01:00:21;;;;;;;2.38;1.48;;;;;;;;;;5051189;28;20547;-70
2021/05/09 01:02:49;;;;;;;5.55;1.58;;;;;;;;;;5052732;28;20562;-70
2021/05/09 01:05:16;;;;;;;4.50;1.67;;;;;;;;;;5051310;28;20056;-70
2021/05/09 01:07:43;;;;;;;4.05;1.45;;;;;;;;;;5050900;28;20485;-70
2021/05/09 01:10:12;;;;;;;4.38;1.40;;;;;;;;;;5039057;28;20060;-70
2021/05/09 01:12:39;;;;;;;2.97;1.55;;;;;;;;;;5047710;28;20395;-70
2021/05/09 01:15:07;;;;;;;2.22;1.30;;;;;;;;;;5046423;28;20485;-70
2021/05/09 01:17:34;;;;;;;3.83;1.23;;;;;;;;;;5052174;28;20033;-69
2021/05/09 01:20:27;;;;;;;5.70;1.95;;;;;;;;;;5050536;28;20029;-70
2021/05/09 01:22:54;;;;;;;2.75;1.23;;;;;;;;;;5049782;28;20032;-70
2021/05/09 01:25:21;;;;;;;3.42;1.55;;;;;;;;;;5030772;28;20117;-71
2021/05/09 01:27:49;;;;;;;3.42;1.50;;;;;;;;;;5033146;28;20037;-71
2021/05/09 01:30:16;;;;;;;3.08;1.63;;;;;;;;;;5050979;28;20036;-71
2021/05/09 01:32:43;;;;;;;3.78;1.60;;;;;;;;;;5049725;28;20492;-70
2021/05/09 01:35:11;;;;;;;5.07;1.63;;;;;;;;;;5052206;28;20057;-70
2021/05/09 01:37:39;;;;;;;4.53;1.52;;;;;;;;;;5051147;28;20040;-70
2021/05/09 01:40:06;;;;;;;4.03;1.67;;;;;;;;;;5055888;28;20024;-70
2021/05/09 01:42:33;;;;;;;6.93;1.30;;;;;;;;;;5054842;28;20025;-70
2021/05/09 01:45:01;;;;;;;3.72;1.50;;;;;;;;;;5055265;28;20111;-70
2021/05/09 01:47:29;;;;;;;2.33;1.30;;;;;;;;;;5056009;28;20078;-70
2021/05/09 01:49:56;;;;;;;2.72;1.27;;;;;;;;;;5055020;28;20128;-70
2021/05/09 01:52:23;;;;;;;3.00;1.42;;;;;;;;;;5041390;28;20029;-70
2021/05/09 01:54:50;;;;;;;5.40;1.48;;;;;;;;;;5054648;28;20029;-70
2021/05/09 01:57:17;;;;;;;3.90;1.30;;;;;;;;;;5054195;28;20032;-70
2021/05/09 01:59:44;;;;;;;5.00;1.50;;;;;;;;;;5053340;28;20033;-70
2021/05/09 02:02:11;;;;;;;3.88;1.50;;;;;;;;;;5055487;28;20021;-70
2021/05/09 02:04:39;;;;;;;3.90;1.48;;;;;;;;;;5041234;28;20057;-71
2021/05/09 02:07:06;;;;;;;3.90;1.58;;;;;;;;;;5050810;28;20049;-70
2021/05/09 02:09:33;;;;;;;2.90;1.73;;;;;;;;;;5054605;28;20063;-70
2021/05/09 02:12:00;;;;;;;5.53;1.80;;;;;;;;;;5054324;28;20021;-69
2021/05/09 02:14:27;;;;;;;5.85;1.95;;;;;;;;;;5053563;28;20032;-70
2021/05/09 02:16:54;;;;;;;4.97;2.13;;;;;;;;;;5054105;28;20489;-70
2021/05/09 02:19:21;;;;;;;3.47;1.63;;;;;;;;;;5041738;28;20461;-71
2021/05/09 02:21:48;;;;;;;5.20;1.80;;;;;;;;;;5035413;28;20075;-70
2021/05/09 02:24:15;;;;;;;4.65;2.03;;;;;;;;;;5047965;28;20437;-70
2021/05/09 02:26:42;;;;;;;4.47;1.80;;;;;;;;;;5052683;28;20025;-70
2021/05/09 02:29:10;;;;;;;3.72;1.60;;;;;;;;;;5043642;28;20029;-70
2021/05/09 02:31:37;;;;;;;5.07;1.88;;;;;;;;;;5035259;28;20070;-70
2021/05/09 02:34:04;;;;;;;4.82;2.42;;;;;;;;;;5041327;28;20140;-70
2021/05/09 02:36:31;;;;;;;11.23;3.10;;;;;;;;;;5035166;28;20029;-71
2021/05/09 02:38:58;;;;;;;5.43;2.13;;;;;;;;;;5044097;28;20041;-70
2021/05/09 02:41:25;;;;;;;3.97;1.67;;;;;;;;;;5050281;28;20037;-70
2021/05/09 02:43:52;;;;;;;3.45;1.38;;;;;;;;;;5047955;28;20026;-70
2021/05/09 02:46:19;;;;;;;3.78;1.67;;;;;;;;;;5033722;28;20099;-70
2021/05/09 02:48:47;;;;;;;5.38;2.05;;;;;;;;;;5041044;28;20108;-70
2021/05/09 02:51:14;;;;;;;5.45;2.15;;;;;;;;;;5053715;28;20066;-70
2021/05/09 02:53:41;;;;;;;3.92;1.88;;;;;;;;;;5053039;28;20044;-70
2021/05/09 02:56:08;;;;;;;6.00;2.00;;;;;;;;;;5054069;28;20028;-70
2021/05/09 02:58:35;;;;;;;5.13;1.80;;;;;;;;;;5051617;28;20033;-70
2021/05/09 03:01:02;;;;;;;9.15;3.30;;;;;;;;;;5052950;28;20090;-70
2021/05/09 03:03:29;;;;;;;7.38;1.65;;;;;;;;;;5053086;28;20136;-70
2021/05/09 03:05:56;;;;;;;5.15;2.38;;;;;;;;;;5044180;28;20087;-71
2021/05/09 03:08:24;;;;;;;7.13;2.30;;;;;;;;;;5046769;28;20037;-70
2021/05/09 03:10:51;;;;;;;8.07;2.42;;;;;;;;;;5050855;28;20518;-69
2021/05/09 03:13:18;;;;;;;6.25;2.00;;;;;;;;;;5042406;28;20452;-69
2021/05/09 03:15:45;;;;;;;6.97;2.45;;;;;;;;;;5045806;28;20112;-69
2021/05/09 03:18:13;;;;;;;7.22;2.00;;;;;;;;;;5042532;28;20037;-69
2021/05/09 03:20:40;;;;;;;5.68;2.85;;;;;;;;;;5039405;28;20025;-70
2021/05/09 03:23:07;;;;;;;3.78;2.55;;;;;;;;;;5042341;28;20104;-70
2021/05/09 03:25:35;;;;;;;6.03;2.55;;;;;;;;;;5040070;28;20037;-69
2021/05/09 03:28:02;;;;;;;5.32;2.10;;;;;;;;;;5043276;28;20028;-68
2021/05/09 03:30:29;;;;;;;7.82;2.78;;;;;;;;;;5036380;28;20053;-68
2021/05/09 03:32:56;;;;;;;4.05;2.03;;;;;;;;;;5044642;28;20029;-68
2021/05/09 03:35:23;;;;;;;10.55;2.45;;;;;;;;;;5046759;28;20404;-69
2021/05/09 03:37:50;;;;;;;4.55;1.80;;;;;;;;;;5041335;28;20055;-67
2021/05/09 03:40:18;;;;;;;5.78;2.10;;;;;;;;;;5048035;28;20033;-68
2021/05/09 03:42:45;;;;;;;6.65;2.75;;;;;;;;;;5047471;28;20036;-68
2021/05/09 03:45:12;;;;;;;5.15;3.00;;;;;;;;;;5039805;28;20041;-67
2021/05/09 03:47:39;;;;;;;4.95;2.65;;;;;;;;;;5040843;28;20040;-67
2021/05/09 03:50:06;;;;;;;4.10;2.05;;;;;;;;;;5039446;28;20033;-68
2021/05/09 03:52:34;;;;;;;4.90;2.67;;;;;;;;;;5041243;28;20022;-68
2021/05/09 03:55:01;;;;;;;7.97;2.50;;;;;;;;;;5039759;28;20021;-69
2021/05/09 03:57:28;;;;;;;4.90;2.13;;;;;;;;;;5040582;28;20029;-69
2021/05/09 03:59:55;;;;;;;11.52;2.90;;;;;;;;;;5041545;28;20167;-68
2021/05/09 04:02:22;;;;;;;3.70;1.67;;;;;;;;;;5033527;28;20044;-68
2021/05/09 04:04:51;;;;;;;4.22;1.80;;;;;;;;;;5034837;28;20032;-68
2021/05/09 04:07:18;;;;;;;5.97;2.30;;;;;;;;;;5041648;28;20394;-67
2021/05/09 04:09:45;;;;;;;6.25;2.30;;;;;;;;;;5042340;28;20029;-68
2021/05/09 04:12:12;;;;;;;6.00;2.15;;;;;;;;;;5034765;28;20075;-68
2021/05/09 04:14:39;;;;;;;6.82;3.05;;;;;;;;;;5044970;28;20021;-68
2021/05/09 04:17:06;;;;;;;5.88;2.28;;;;;;;;;;5041673;28;20164;-69
2021/05/09 04:19:33;;;;;;;7.90;2.90;;;;;;;;;;5043591;28;20037;-69
2021/05/09 04:22:01;;;;;;;7.68;2.53;;;;;;;;;;5046350;28;20112;-69
2021/05/09 04:24:28;;;;;;;5.68;2.53;;;;;;;;;;5039518;28;20176;-68
2021/05/09 04:26:55;;;;;;;5.75;2.40;;;;;;;;;;5041692;28;20358;-69
2021/05/09 04:29:22;;;;;;;6.65;2.53;;;;;;;;;;5046451;28;20024;-69
2021/05/09 04:31:49;;;;;;;4.60;2.33;;;;;;;;;;5052609;28;20402;-69
2021/05/09 04:34:17;;;;;;;3.90;1.85;;;;;;;;;;5051582;28;20053;-69
2021/05/09 04:36:44;;;;;;;6.57;2.67;;;;;;;;;;5051174;28;20035;-69
2021/05/09 04:39:14;;;;;;;7.07;2.92;;;;;;;;;;5051627;28;20060;-69
2021/05/09 04:41:41;;;;;;;6.03;2.47;;;;;;;;;;5051345;28;20032;-69
2021/05/09 04:44:08;;;;;;;6.00;2.55;;;;;;;;;;5050461;28;20163;-69
2021/05/09 04:46:35;;;;;;;6.72;3.08;;;;;;;;;;5052822;28;20484;-69
2021/05/09 04:49:02;;;;;;;7.93;2.35;;;;;;;;;;5040995;28;20041;-69
2021/05/09 04:51:29;;;;;;;7.32;2.65;;;;;;;;;;5032518;28;20433;-69
2021/05/09 04:53:56;;;;;;;6.05;2.70;;;;;;;;;;5040928;28;20094;-69
2021/05/09 04:56:24;;;;;;;9.88;2.90;;;;;;;;;;5051001;28;20056;-69
2021/05/09 04:58:51;;;;;;;4.30;2.50;;;;;;;;;;5045068;28;20029;-69
2021/05/09 05:01:18;;;;;;;5.85;3.13;;;;;;;;;;5032626;28;20029;-69
2021/05/09 05:03:47;;;;;;;6.90;3.28;;;;;;;;;;5040745;28;20036;-69
2021/05/09 05:06:15;;;;;;;9.13;2.42;;;;;;;;;;5051181;28;20032;-69
2021/05/09 05:08:42;;;;;;;5.28;2.13;;;;;;;;;;5048802;28;20052;-69
2021/05/09 05:11:09;;;;;;;6.47;2.50;;;;;;;;;;5049913;28;20021;-70
2021/05/09 05:13:37;;;;;;;7.07;2.90;;;;;;;;;;5050796;28;20031;-69
2021/05/09 05:16:06;;;;;;;5.50;2.30;;;;;;;;;;5032752;28;20029;-69
2021/05/09 05:18:34;;;;;;;6.43;2.38;;;;;;;;;;5034064;28;20032;-69
2021/05/09 05:21:04;;;;;;;6.38;2.42;;;;;;;;;;5047621;28;20029;-69
2021/05/09 05:23:31;;;;;;;6.10;2.78;;;;;;;;;;5039245;28;20112;-69
2021/05/09 05:25:58;;;;;;;5.22;2.40;;;;;;;;;;5052064;28;20017;-69
2021/05/09 05:28:26;;;;;;;10.35;3.40;;;;;;;;;;5049746;28;20459;-69
2021/05/09 05:30:54;;;;;;;5.63;3.22;;;;;;;;;;5032865;28;20034;-69
2021/05/09 05:33:39;;;;;;;6.60;2.38;;;;;;;;;;5037384;28;20481;-69
2021/05/09 05:36:08;;;;;;;5.78;2.97;;;;;;;;;;5046739;28;20025;-69
2021/05/09 05:38:36;;;;;;;5.70;2.65;;;;;;;;;;5049205;28;20033;-69
2021/05/09 05:41:03;;;;;;;11.45;2.80;;;;;;;;;;5050818;28;20505;-69
2021/05/09 05:43:33;;;;;;;8.13;3.63;;;;;;;;;;5050810;28;20032;-69
2021/05/09 05:46:01;;;;;;;10.75;3.25;;;;;;;;;;5050562;28;20071;-69
2021/05/09 05:48:29;;;;;;;9.02;3.47;;;;;;;;;;5049486;28;20086;-69
2021/05/09 05:50:57;;;;;;;6.55;3.50;;;;;;;;;;5049915;28;20021;-69
2021/05/09 05:53:24;;;;;;;6.53;2.95;;;;;;;;;;5039067;28;20913;-69
2021/05/09 05:55:53;;;;;;;6.68;2.55;;;;;;;;;;5035661;28;20024;-69
2021/05/09 05:58:21;;;;;;;8.10;2.80;;;;;;;;;;5037356;28;20036;-69
2021/05/09 06:00:48;;;;;;;6.03;2.42;;;;;;;;;;5041043;28;20029;-70
2021/05/09 06:03:16;;;;;;;5.25;2.30;;;;;;;;;;5049282;28;20021;-70
2021/05/09 06:05:48;;;;;;;5.95;2.30;;;;;;;;;;5042730;28;20021;-70
2021/05/09 06:08:18;;;;;;;4.68;2.28;;;;;;;;;;5045732;28;20076;-70
2021/05/09 06:10:46;;;;;;;5.80;2.70;;;;;;;;;;5046613;28;20487;-69
2021/05/09 06:13:13;;;;;;;6.25;2.53;;;;;;;;;;5043077;28;20029;-70
2021/05/09 06:15:40;;;;;;;7.15;2.90;;;;;;;;;;5044245;28;20033;-70
2021/05/09 06:18:08;;;;;;;5.03;2.80;;;;;;;;;;5047300;28;20135;-70
2021/05/09 06:20:35;;;;;;;6.03;2.53;;;;;;;;;;5036719;28;20064;-69
2021/05/09 06:23:03;;;;;;;6.13;3.05;;;;;;;;;;5040818;28;20515;-68
2021/05/09 06:25:30;;;;;;;10.73;2.85;;;;;;;;;;5051490;28;20025;-69
2021/05/09 06:27:57;;;;;;;6.13;2.90;;;;;;;;;;5048231;28;20095;-69
2021/05/09 06:30:25;;;;;;;6.10;2.58;;;;;;;;;;5041242;28;20040;-69
2021/05/09 06:32:52;;;;;;;4.60;2.85;;;;;;;;;;5043386;28;20021;-68
2021/05/09 06:35:19;;;;;;;5.07;3.08;;;;;;;;;;5045490;28;20083;-69
2021/05/09 06:37:50;;;;;;;8.15;3.03;;;;;;;;;;5052569;28;20029;-69
2021/05/09 06:40:18;;;;;;;6.05;2.72;;;;;;;;;;5033908;28;20056;-69
2021/05/09 06:42:45;;;;;;;6.00;2.70;;;;;;;;;;5035143;28;20084;-69
2021/05/09 06:45:21;;;;;;;6.47;2.83;;;;;;;;;;5033662;28;20083;-69
2021/05/09 06:47:48;;;;;;;8.55;3.47;;;;;;;;;;5040762;28;20036;-69
2021/05/09 06:50:15;;;;;;;6.32;2.80;;;;;;;;;;5053989;28;20032;-71
2021/05/09 06:52:45;;;;;;;7.20;3.00;;;;;;;;;;5052843;28;20486;-69
2021/05/09 06:55:13;;;;;;;9.20;3.10;;;;;;;;;;5062642;28;20036;-69
2021/05/09 06:57:40;;;;;;;7.13;3.50;;;;;;;;;;5071710;28;20090;-69
2021/05/09 07:00:09;;;;;;;7.18;3.15;;;;;;;;;;5054794;28;20607;-69
2021/05/09 07:02:36;;;;;;;7.28;4.43;;;;;;;;;;5051749;28;20111;-70
2021/05/09 07:05:04;;;;;;;8.80;3.60;;;;;;;;;;5043096;28;20064;-72
2021/05/09 07:07:31;;;;;;;7.47;4.25;;;;;;;;;;5034458;28;20029;-71
2021/05/09 07:09:58;;;;;;;5.72;3.22;;;;;;;;;;5054283;28;20074;-71
2021/05/09 07:12:25;;;;;;;5.05;3.05;;;;;;;;;;5054218;28;20021;-70
2021/05/09 07:14:52;;;;;;;6.68;3.10;;;;;;;;;;5053397;28;20147;-70
2021/05/09 07:17:19;;;;;;;6.10;2.83;;;;;;;;;;5053070;28;20123;-70
2021/05/09 07:19:46;;;;;;;6.20;2.70;;;;;;;;;;5037103;28;20045;-70
2021/05/09 07:22:20;;;;;;;8.13;3.50;;;;;;;;;;5036285;28;20030;-71
2021/05/09 07:24:48;;;;;;;6.82;3.17;;;;;;;;;;5052668;28;20576;-71
2021/05/09 07:27:15;;;;;;;12.43;3.60;;;;;;;;;;5052879;28;20095;-70
2021/05/09 07:29:42;;;;;;;5.93;2.88;;;;;;;;;;5051777;28;20025;-71
2021/05/09 07:32:09;;;;;;;6.75;3.45;;;;;;;;;;5053931;28;20025;-70
2021/05/09 07:34:36;;;;;;;6.05;2.88;;;;;;;;;;5052130;28;20517;-71
2021/05/09 07:37:03;;;;;;;4.47;2.30;;;;;;;;;;5053461;28;20021;-71
2021/05/09 07:39:30;;;;;;;5.85;2.40;;;;;;;;;;5052017;28;20018;-71
2021/05/09 07:41:57;;;;;;;8.63;3.58;;;;;;;;;;5037929;28;20095;-71
2021/05/09 07:44:25;;;;;;;12.95;5.88;;;;;;;;;;5053766;28;20021;-71
2021/05/09 07:46:52;;;;;;;11.35;4.32;;;;;;;;;;5053831;28;20025;-71
2021/05/09 07:49:19;;;;;;;6.78;3.83;;;;;;;;;;5053799;28;20082;-71
2021/05/09 07:51:47;;;;;;;8.80;2.85;;;;;;;;;;5052170;28;20032;-71
2021/05/09 07:54:14;;;;;;;5.63;3.17;;;;;;;;;;5050942;28;20087;-71
2021/05/09 07:56:41;;;;;;;8.38;4.07;;;;;;;;;;5053395;28;20473;-71
2021/05/09 07:59:08;;;;;;;5.93;3.70;;;;;;;;;;5044748;28;20025;-71
2021/05/09 08:01:35;;;;;;;6.95;4.97;;;;;;;;;;5053487;28;20020;-71
2021/05/09 08:04:04;;;;;;;9.00;5.93;;;;;;;;;;5053592;28;20378;-71
2021/05/09 08:06:31;;;;;;;8.18;4.70;;;;;;;;;;5043488;28;20030;-70
2021/05/09 08:08:58;;;;;;;8.77;3.97;;;;;;;;;;5043836;28;20040;-71
2021/05/09 08:11:25;;;;;;;6.72;4.00;;;;;;;;;;5053420;28;20032;-71
2021/05/09 08:13:52;;;;;;;10.52;4.47;;;;;;;;;;5050095;28;20036;-71
2021/05/09 08:16:19;;;;;;;8.43;4.82;;;;;;;;;;5051972;28;20037;-70
2021/05/09 08:18:47;;;;;;;10.45;5.88;;;;;;;;;;5049878;28;20052;-71
2021/05/09 08:21:14;;;;;;;14.23;6.30;;;;;;;;;;5052000;28;20033;-70
2021/05/09 08:23:44;;;;;;;9.88;5.65;;;;;;;;;;5052064;28;20485;-71
2021/05/09 08:26:12;;;;;;;6.35;3.60;;;;;;;;;;5052961;28;20025;-71
2021/05/09 08:28:41;;;;;;;5.88;3.58;;;;;;;;;;5050471;28;20031;-71
2021/05/09 08:31:15;;;;;;;6.18;3.05;;;;;;;;;;5050582;28;20071;-71
2021/05/09 08:33:43;;;;;;;8.82;3.45;;;;;;;;;;5042417;28;20095;-71
2021/05/09 08:36:10;;;;;;;12.70;4.20;;;;;;;;;;5051581;28;20032;-71
2021/05/09 08:38:40;;;;;;;7.00;4.57;;;;;;;;;;5051393;28;20041;-71
2021/05/09 08:41:07;;;;;;;10.90;5.32;;;;;;;;;;5051426;28;20086;-71
2021/05/09 08:43:34;;;;;;;14.10;6.45;;;;;;;;;;5047235;28;20070;-71
2021/05/09 08:46:01;;;;;;;8.05;5.00;;;;;;;;;;5039480;28;20030;-71
2021/05/09 08:48:29;;;;;;;6.82;3.67;;;;;;;;;;5039747;28;20035;-71
2021/05/09 08:50:56;;;;;;;7.18;4.65;;;;;;;;;;5052594;28;20029;-70
2021/05/09 08:53:23;;;;;;;8.18;4.20;;;;;;;;;;5047347;28;20060;-69
2021/05/09 08:55:50;;;;;;;6.57;3.20;;;;;;;;;;5052540;28;20048;-71
2021/05/09 08:58:17;;;;;;;6.43;3.60;;;;;;;;;;5051041;28;20040;-71
2021/05/09 09:00:44;;;;;;;6.70;2.92;;;;;;;;;;5051197;28;20389;-71
2021/05/09 09:03:14;;;;;;;4.53;2.63;;;;;;;;;;5052454;28;20029;-71
2021/05/09 09:05:42;;;;;;;4.25;2.90;;;;;;;;;;5049641;28;20025;-71
2021/05/09 09:08:10;;;;;;;6.68;3.80;;;;;;;;;;5050762;28;20125;-71
2021/05/09 09:10:41;;;;;;;7.50;4.15;;;;;;;;;;5052276;28;20071;-71
2021/05/09 09:13:40;;;;;;;4.78;3.25;;;;;;;;;;5048249;28;20021;-71
2021/05/09 09:16:08;;;;;;;6.22;4.03;;;;;;;;;;5051503;28;20041;-71
2021/05/09 09:18:37;;;;;;;7.40;4.35;;;;;;;;;;5050887;28;20037;-71
2021/05/09 09:21:22;;;;;;;8.80;4.65;;;;;;;;;;5045666;28;20382;-71
2021/05/09 09:23:50;;;;;;;6.63;3.65;;;;;;;;;;5045338;28;20367;-71
2021/05/09 09:26:31;;;;;;;8.68;3.80;;;;;;;;;;5032359;28;20018;-71
2021/05/09 09:28:59;;;;;;;6.75;4.03;;;;;;;;;;5041283;28;20025;-71
2021/05/09 09:31:43;;;;;;;5.60;3.22;;;;;;;;;;5052391;28;20489;-71
2021/05/09 09:34:10;;;;;;;6.18;3.72;;;;;;;;;;5049540;28;20056;-71
2021/05/09 09:36:38;;;;;;;6.35;3.75;;;;;;;;;;5051939;28;20037;-71
2021/05/09 09:39:06;;;;;;;5.03;3.45;;;;;;;;;;5051924;28;20037;-71
2021/05/09 09:41:33;;;;;;;4.95;3.30;;;;;;;;;;5051974;28;20497;-70
2021/05/09 09:44:06;;;;;;;5.75;3.53;;;;;;;;;;5050684;28;20032;-69
2021/05/09 09:46:33;;;;;;;6.85;4.10;;;;;;;;;;5050636;28;20021;-68
2021/05/09 09:49:01;;;;;;;7.05;4.05;;;;;;;;;;5049858;28;20032;-70
2021/05/09 09:51:28;;;;;;;6.97;3.30;;;;;;;;;;5051502;28;20508;-70
2021/05/09 09:53:57;;;;;;;4.35;3.40;;;;;;;;;;5052034;28;20471;-70
2021/05/09 09:56:27;;;;;;;5.68;3.65;;;;;;;;;;5050646;28;20037;-71
2021/05/09 09:58:56;;;;;;;6.30;3.50;;;;;;;;;;5052262;28;20124;-71
2021/05/09 10:01:33;;;;;;;4.63;3.40;;;;;;;;;;5053829;28;20029;-70
2021/05/09 10:04:02;;;;;;;5.97;3.63;;;;;;;;;;5053401;28;20037;-71
2021/05/09 10:06:29;;;;;;;6.80;5.55;;;;;;;;;;5055919;28;20096;-71
2021/05/09 10:09:00;;;;;;;10.77;6.30;;;;;;;;;;5055834;28;20062;-71
2021/05/09 10:11:30;;;;;;;9.55;5.05;;;;;;;;;;5054218;28;20095;-69
2021/05/09 10:13:58;;;;;;;6.63;4.75;;;;;;;;;;5054821;28;20029;-70
2021/05/09 10:16:29;;;;;;;6.03;3.72;;;;;;;;;;5042979;28;20037;-69
2021/05/09 10:19:00;;;;;;;7.85;3.88;;;;;;;;;;5045959;28;20436;-70
2021/05/09 10:21:34;;;;;;;8.30;3.30;;;;;;;;;;5052344;28;20049;-70
2021/05/09 10:24:17;;;;;;;6.20;3.72;;;;;;;;;;5049585;28;20060;-69
2021/05/09 10:26:52;;;;;;;5.82;4.32;;;;;;;;;;5052163;28;20025;-69
2021/05/09 10:32:01;;;;;;;6.13;3.10;;;;;;;;;;5054834;28;20025;-69
2021/05/09 10:34:46;;;;;;;5.97;3.60;;;;;;;;;;5053238;28;20056;-68
2021/05/09 10:37:33;;;;;;;7.47;3.50;;;;;;;;;;5053200;28;20039;-69
2021/05/09 10:40:19;;;;;;;6.50;3.65;;;;;;;;;;5043547;28;20371;-69
2021/05/09 10:42:47;;;;;;;6.72;2.95;;;;;;;;;;5050752;28;20049;-69
2021/05/09 10:45:30;;;;;;;6.10;3.22;;;;;;;;;;5053173;28;20021;-69
2021/05/09 10:48:16;;;;;;;7.47;3.08;;;;;;;;;;5035748;28;20041;-69
2021/05/09 10:50:44;;;;;;;4.78;2.78;;;;;;;;;;5035208;28;20033;-68
2021/05/09 10:53:33;;;;;;;5.85;3.35;;;;;;;;;;5049020;28;20052;-69
2021/05/09 10:56:05;;;;;;;6.07;3.25;;;;;;;;;;5051635;28;20109;-68
2021/05/09 10:58:45;;;;;;;6.88;3.30;;;;;;;;;;5051628;28;20107;-68
2021/05/09 11:01:20;;;;;;;5.35;3.08;;;;;;;;;;5050262;28;20055;-68
2021/05/09 11:04:03;;;;;;;6.40;2.50;;;;;;;;;;5052512;28;20021;-68
2021/05/09 11:06:30;;;;;;;7.05;3.50;;;;;;;;;;5051244;28;20021;-68
2021/05/09 11:08:59;;;;;;;3.90;2.92;;;;;;;;;;5053842;28;20111;-68
2021/05/09 11:11:26;;;;;;;5.78;3.38;;;;;;;;;;5053185;28;20065;-68
2021/05/09 11:14:00;;;;;;;7.32;3.40;;;;;;;;;;5050751;28;20563;-68
2021/05/09 11:16:36;;;;;;;8.10;4.00;;;;;;;;;;5051557;28;20053;-68
2021/05/09 11:19:14;;;;;;;6.20;3.58;;;;;;;;;;5052651;28;20025;-68
2021/05/09 11:22:01;;;;;;;6.00;3.25;;;;;;;;;;5033860;28;20108;-68
2021/05/09 11:24:30;;;;;;;5.22;3.65;;;;;;;;;;5033816;28;20046;-68
2021/05/09 11:26:58;;;;;;;5.82;3.00;;;;;;;;;;5052132;28;20040;-68
2021/05/09 11:29:26;;;;;;;11.48;3.55;;;;;;;;;;5052459;28;20389;-67
2021/05/09 11:31:53;;;;;;;6.53;3.78;;;;;;;;;;5036959;28;20532;-68
2021/05/09 11:34:21;;;;;;;6.15;3.17;;;;;;;;;;5047407;28;20052;-69
2021/05/09 11:36:52;;;;;;;5.03;3.50;;;;;;;;;;5041625;28;20075;-69
2021/05/09 11:39:35;;;;;;;6.35;3.55;;;;;;;;;;5039585;28;20029;-70
2021/05/09 11:42:03;;;;;;;6.03;3.30;;;;;;;;;;5039128;28;20013;-69
2021/05/09 11:44:36;;;;;;;5.30;2.97;;;;;;;;;;5040605;28;20017;-70
2021/05/09 11:47:07;;;;;;;5.32;3.00;;;;;;;;;;5041017;28;20033;-70
2021/05/09 11:49:35;;;;;;;3.92;2.78;;;;;;;;;;5044745;28;20031;-70
2021/05/09 11:52:05;;;;;;;4.40;2.53;;;;;;;;;;5038152;28;20045;-70
2021/05/09 11:54:45;;;;;;;5.93;2.58;;;;;;;;;;5041979;28;20051;-71
2021/05/09 11:57:12;;;;;;;4.70;2.28;;;;;;;;;;5045382;28;20025;-70
2021/05/09 11:59:44;;;;;;;5.30;2.67;;;;;;;;;;5048430;28;20053;-71
2021/05/09 12:02:14;;;;;;;4.57;2.03;;;;;;;;;;5036767;28;20422;-70
2021/05/09 12:04:41;;;;;;;4.30;1.92;;;;;;;;;;5045267;28;20388;-70
2021/05/09 12:07:14;;;;;;;3.83;2.00;;;;;;;;;;5036384;28;20029;-69
2021/05/09 12:09:42;;;;;;;4.07;1.73;;;;;;;;;;5049640;28;20021;-70
2021/05/09 12:12:09;;;;;;;3.35;2.00;;;;;;;;;;5043921;28;20047;-70
2021/05/09 12:14:36;;;;;;;5.38;2.33;;;;;;;;;;5042563;28;20032;-71
2021/05/09 12:17:03;;;;;;;3.47;2.03;;;;;;;;;;5048294;28;20052;-71
2021/05/09 12:19:34;;;;;;;3.45;2.17;;;;;;;;;;5047263;28;20055;-70
2021/05/09 12:22:03;;;;;;;5.95;2.00;;;;;;;;;;5040452;28;20029;-70
2021/05/09 12:24:31;;;;;;;3.45;1.83;;;;;;;;;;5046728;28;20017;-70
2021/05/09 12:26:59;;;;;;;3.88;1.73;;;;;;;;;;5039039;28;20106;-70
2021/05/09 12:29:26;;;;;;;6.90;2.30;;;;;;;;;;5048434;28;20031;-70
2021/05/09 12:31:53;;;;;;;3.70;2.58;;;;;;;;;;5047423;28;20049;-70
2021/05/09 12:34:27;;;;;;;5.80;1.63;;;;;;;;;;5046233;28;20068;-71
2021/05/09 12:37:10;;;;;;;7.10;2.42;;;;;;;;;;5036190;28;20040;-70
2021/05/09 12:39:38;;;;;;;5.63;1.50;;;;;;;;;;5046918;28;20021;-71
2021/05/09 12:42:06;;;;;;;4.03;1.80;;;;;;;;;;5045703;28;20032;-70
2021/05/09 12:44:33;;;;;;;2.55;1.50;;;;;;;;;;5045534;28;20025;-70
2021/05/09 12:47:00;;;;;;;4.35;2.00;;;;;;;;;;5045770;28;20021;-71
2021/05/09 12:49:32;;;;;;;3.15;1.70;;;;;;;;;;5050460;28;20017;-70
2021/05/09 12:52:02;;;;;;;4.35;1.88;;;;;;;;;;5051719;28;20051;-70
2021/05/09 12:54:32;;;;;;;5.53;1.77;;;;;;;;;;5049567;28;20032;-71
2021/05/09 12:57:19;;;;;;;6.72;1.88;;;;;;;;;;5044158;28;20461;-70
2021/05/09 12:59:49;;;;;;;3.67;1.50;;;;;;;;;;5043289;28;20017;-70
2021/05/09 13:02:21;;;;;;;5.40;1.90;;;;;;;;;;5041388;28;20032;-70
2021/05/09 13:04:51;;;;;;;3.42;1.40;;;;;;;;;;5048034;28;20024;-70
2021/05/09 13:07:19;;;;;;;4.88;1.60;;;;;;;;;;5042313;28;20022;-70
2021/05/09 13:09:47;;;;;;;4.63;1.83;;;;;;;;;;5040868;28;20017;-70
2021/05/09 13:12:15;;;;;;;4.00;1.70;;;;;;;;;;5041409;28;20025;-70
2021/05/09 13:14:47;;;;;;;2.50;1.48;;;;;;;;;;5043182;28;20033;-70
2021/05/09 13:17:15;;;;;;;2.95;1.58;;;;;;;;;;5041793;28;20024;-70
2021/05/09 13:19:42;;;;;;;3.22;1.35;;;;;;;;;;5046477;28;20025;-70
2021/05/09 13:22:10;;;;;;;4.82;2.03;;;;;;;;;;5045493;28;20393;-70
2021/05/09 13:24:38;;;;;;;5.15;1.77;;;;;;;;;;5044496;28;20021;-70
2021/05/09 13:27:06;;;;;;;2.50;1.23;;;;;;;;;;5044055;28;20022;-70
2021/05/09 13:29:33;;;;;;;3.10;1.50;;;;;;;;;;5041787;28;20493;-70
2021/05/09 13:32:00;;;;;;;3.53;1.80;;;;;;;;;;5044451;28;20037;-70
2021/05/09 13:34:27;;;;;;;4.10;1.60;;;;;;;;;;5044336;28;20049;-70
2021/05/09 13:36:54;;;;;;;4.68;1.95;;;;;;;;;;5041866;28;20082;-70
2021/05/09 13:39:21;;;;;;;2.63;1.40;;;;;;;;;;5052261;28;20044;-70
2021/05/09 13:41:48;;;;;;;2.10;1.60;;;;;;;;;;5051132;28;21067;-70
2021/05/09 13:44:15;;;;;;;7.07;2.08;;;;;;;;;;5040168;28;20132;-71
2021/05/09 13:46:42;;;;;;;4.32;1.38;;;;;;;;;;5042016;28;20049;-70
2021/05/09 13:49:10;;;;;;;3.45;1.70;;;;;;;;;;5049058;28;20090;-71
2021/05/09 13:51:37;;;;;;;3.78;1.73;;;;;;;;;;5045815;28;20025;-70
2021/05/09 13:54:04;;;;;;;4.50;1.90;;;;;;;;;;5045594;28;20021;-71
2021/05/09 13:56:33;;;;;;;4.80;1.58;;;;;;;;;;5053009;28;20029;-70
2021/05/09 13:59:00;;;;;;;4.05;2.00;;;;;;;;;;5051969;28;20076;-70
2021/05/09 14:01:27;;;;;;;6.03;2.35;;;;;;;;;;5047237;28;20024;-70
2021/05/09 14:03:54;;;;;;;3.28;1.58;;;;;;;;;;5039178;28;20166;-69
2021/05/09 14:06:23;;;;;;;4.93;1.70;;;;;;;;;;5037594;28;20377;-70
2021/05/09 14:08:51;;;;;;;3.13;1.92;;;;;;;;;;5040909;28;20026;-70
2021/05/09 14:11:18;;;;;;;2.28;1.48;;;;;;;;;;5046987;28;20025;-70
2021/05/09 14:13:45;;;;;;;3.97;1.90;;;;;;;;;;5047779;28;20485;-70
2021/05/09 14:16:15;;;;;;;4.88;2.20;;;;;;;;;;5046807;28;20107;-71
2021/05/09 14:18:42;;;;;;;4.07;2.03;;;;;;;;;;5041732;28;20036;-70
2021/05/09 14:21:09;;;;;;;4.90;1.75;;;;;;;;;;5047191;28;20095;-70
2021/05/09 14:23:36;;;;;;;4.40;2.08;;;;;;;;;;5049777;28;20036;-70
2021/05/09 14:26:04;;;;;;;3.15;1.83;;;;;;;;;;5045566;28;20028;-70
2021/05/09 14:28:31;;;;;;;5.28;2.13;;;;;;;;;;5048533;28;20539;-70
2021/05/09 14:30:59;;;;;;;3.90;1.95;;;;;;;;;;5048141;28;20032;-70
2021/05/09 14:33:26;;;;;;;3.22;1.95;;;;;;;;;;5043134;28;21675;-70
2021/05/09 14:35:53;;;;;;;3.00;1.80;;;;;;;;;;5048338;28;20041;-70
2021/05/09 14:38:20;;;;;;;4.40;1.92;;;;;;;;;;5048238;28;20071;-70
2021/05/09 14:40:47;;;;;;;7.15;2.03;;;;;;;;;;5052339;28;20104;-70
2021/05/09 14:43:14;;;;;;;4.95;2.08;;;;;;;;;;5048336;28;20059;-70
2021/05/09 14:45:41;;;;;;;4.60;2.05;;;;;;;;;;5045769;28;20063;-70
2021/05/09 14:48:09;;;;;;;3.42;1.52;;;;;;;;;;5037401;28;20078;-70
2021/05/09 14:50:36;;;;;;;4.68;2.05;;;;;;;;;;5048974;28;20025;-70
2021/05/09 14:53:03;;;;;;;4.82;2.22;;;;;;;;;;5047192;28;20021;-70
2021/05/09 14:55:30;;;;;;;3.40;2.00;;;;;;;;;;5047153;28;20035;-70